Time;durP1;ratioP1;P1;durP2;ratioP2;P2;SDS_P1;SDS_P2;PMS_P1;PMS_P2;Temp;Humidity;BMP_temperature;BMP_pressure;BME280_temperature;BME280_humidity;BME280_pressure;Samples;Min_cycle;Max_cycle;Signal;HPM_P1;HPM_P2
2021/01/03 00:01:03;;;;;;;36.28;21.33;;;2.10;99.90;;;;;;5031425;28;20030;-66
2021/01/03 00:03:29;;;;;;;33.92;20.25;;;2.00;99.90;;;;;;5031139;28;20036;-64
2021/01/03 00:05:55;;;;;;;39.00;21.67;;;2.00;99.90;;;;;;5031828;28;20104;-65
2021/01/03 00:08:20;;;;;;;32.60;19.25;;;2.10;99.90;;;;;;5031691;28;20063;-65
2021/01/03 00:10:46;;;;;;;34.83;20.23;;;2.10;99.90;;;;;;5031012;28;20036;-64
2021/01/03 00:13:12;;;;;;;37.38;21.20;;;2.10;99.90;;;;;;5031080;28;20034;-65
2021/01/03 00:15:38;;;;;;;34.28;20.58;;;2.10;99.90;;;;;;5031657;28;20383;-65
2021/01/03 00:18:03;;;;;;;38.42;21.08;;;2.00;99.90;;;;;;5031678;28;20088;-65
2021/01/03 00:20:30;;;;;;;41.17;21.58;;;2.00;99.90;;;;;;5031337;28;20057;-65
2021/01/03 00:22:56;;;;;;;36.80;19.75;;;2.00;99.90;;;;;;5030950;28;20055;-67
2021/01/03 00:25:25;;;;;;;34.95;20.02;;;2.00;99.90;;;;;;5031485;28;20025;-66
2021/01/03 00:27:52;;;;;;;33.50;19.33;;;2.00;99.90;;;;;;5031550;28;20116;-65
2021/01/03 00:30:20;;;;;;;34.75;19.50;;;2.00;99.90;;;;;;5031464;28;20124;-65
2021/01/03 00:32:47;;;;;;;30.42;18.40;;;2.00;99.90;;;;;;5030450;28;20033;-65
2021/01/03 00:35:20;;;;;;;33.80;18.60;;;2.00;99.90;;;;;;5031394;28;20060;-65
2021/01/03 00:37:46;;;;;;;30.75;17.63;;;2.00;99.90;;;;;;5031632;28;20022;-65
2021/01/03 00:40:15;;;;;;;26.70;16.83;;;2.10;99.90;;;;;;5031896;28;20109;-64
2021/01/03 00:42:41;;;;;;;26.33;16.52;;;2.00;99.90;;;;;;5031485;28;20384;-65
2021/01/03 00:45:08;;;;;;;28.98;17.33;;;2.00;99.90;;;;;;5032059;28;20040;-65
2021/01/03 00:47:35;;;;;;;27.38;17.02;;;2.00;99.90;;;;;;5032464;28;20029;-65
2021/01/03 00:50:01;;;;;;;29.00;16.30;;;2.00;99.90;;;;;;5032250;28;20037;-65
2021/01/03 00:52:26;;;;;;;25.48;16.02;;;2.00;99.90;;;;;;5040188;28;20025;-64
2021/01/03 00:54:52;;;;;;;25.67;15.95;;;2.00;99.90;;;;;;5036833;28;20025;-65
2021/01/03 00:57:17;;;;;;;22.98;15.55;;;2.10;99.90;;;;;;5036485;28;20034;-65
2021/01/03 00:59:43;;;;;;;26.30;16.02;;;2.00;99.90;;;;;;5036558;28;20026;-65
2021/01/03 01:02:09;;;;;;;25.67;15.73;;;2.00;99.90;;;;;;5024630;28;20056;-65
2021/01/03 01:04:34;;;;;;;25.10;15.75;;;2.00;99.90;;;;;;5014873;28;20026;-65
2021/01/03 01:07:00;;;;;;;23.77;15.30;;;1.90;99.90;;;;;;5012685;28;20030;-65
2021/01/03 01:09:26;;;;;;;23.63;15.65;;;1.90;99.90;;;;;;5012420;28;20033;-65
2021/01/03 01:11:53;;;;;;;27.83;16.75;;;1.90;99.90;;;;;;5011825;28;20022;-65
2021/01/03 01:14:19;;;;;;;24.52;16.02;;;1.90;99.90;;;;;;5015251;28;20048;-65
2021/01/03 01:16:44;;;;;;;25.33;15.90;;;1.80;99.90;;;;;;5031548;28;20025;-66
2021/01/03 01:19:10;;;;;;;24.60;16.08;;;1.70;99.90;;;;;;5031081;28;20037;-66
2021/01/03 01:21:36;;;;;;;26.10;16.15;;;1.70;99.90;;;;;;5031416;28;20467;-65
2021/01/03 01:24:01;;;;;;;25.80;15.80;;;1.70;99.90;;;;;;5043595;28;20026;-65
2021/01/03 01:26:27;;;;;;;27.73;15.88;;;1.70;99.90;;;;;;5034785;28;20053;-65
2021/01/03 01:28:53;;;;;;;28.67;16.65;;;1.70;99.90;;;;;;5034719;28;20505;-65
2021/01/03 01:31:18;;;;;;;25.15;16.42;;;1.70;99.90;;;;;;5034416;28;20124;-65
2021/01/03 01:33:44;;;;;;;32.40;16.25;;;1.70;99.90;;;;;;5034034;28;20064;-65
2021/01/03 01:36:10;;;;;;;32.03;16.45;;;1.70;99.90;;;;;;5034617;28;20490;-66
2021/01/03 01:38:35;;;;;;;22.77;15.50;;;1.70;99.90;;;;;;5035408;28;20029;-65
2021/01/03 01:41:02;;;;;;;26.20;16.40;;;1.60;99.90;;;;;;5035440;28;20136;-65
2021/01/03 01:43:27;;;;;;;24.45;15.70;;;1.60;99.90;;;;;;5033856;28;20554;-66
2021/01/03 01:45:53;;;;;;;27.33;16.58;;;1.60;99.90;;;;;;5034409;28;20049;-66
2021/01/03 01:48:27;;;;;;;26.77;16.45;;;1.50;99.90;;;;;;5034725;28;20038;-66
2021/01/03 01:51:05;;;;;;;24.77;15.65;;;1.40;99.90;;;;;;5034284;28;20083;-65
2021/01/03 01:54:29;;;;;;;23.65;14.88;;;1.50;99.90;;;;;;5033848;28;20387;-66
2021/01/03 01:57:06;;;;;;;22.63;14.88;;;1.40;99.90;;;;;;4972438;28;20106;-65
2021/01/03 02:00:11;;;;;;;26.48;16.13;;;1.40;99.90;;;;;;4973276;28;20440;-65
2021/01/03 02:03:05;;;;;;;22.52;15.27;;;1.50;99.90;;;;;;5021514;28;20068;-65
2021/01/03 02:05:56;;;;;;;23.63;14.57;;;1.40;99.90;;;;;;5032598;28;20050;-65
2021/01/03 02:08:31;;;;;;;24.35;14.35;;;1.30;99.90;;;;;;5032927;28;20079;-65
2021/01/03 02:10:58;;;;;;;26.88;17.02;;;1.40;99.90;;;;;;5033220;28;20034;-65
2021/01/03 02:13:32;;;;;;;24.65;15.93;;;1.50;99.90;;;;;;5033631;28;20379;-64
2021/01/03 02:16:02;;;;;;;23.77;15.52;;;1.50;99.90;;;;;;5033580;28;20029;-64
2021/01/03 02:18:28;;;;;;;24.25;15.18;;;1.50;99.90;;;;;;5033813;28;20029;-65
2021/01/03 02:21:15;;;;;;;24.90;15.95;;;1.50;99.90;;;;;;5033741;28;20403;-65
2021/01/03 02:23:56;;;;;;;25.48;15.93;;;1.40;99.90;;;;;;5033174;28;20033;-65
2021/01/03 02:26:25;;;;;;;23.88;15.20;;;1.40;99.90;;;;;;5033525;28;20029;-65
2021/01/03 02:28:53;;;;;;;25.48;15.73;;;1.40;99.90;;;;;;5033631;28;20025;-65
2021/01/03 02:31:29;;;;;;;27.27;15.45;;;1.40;99.90;;;;;;5033437;28;20022;-65
2021/01/03 02:33:56;;;;;;;24.90;15.82;;;1.40;99.90;;;;;;5032884;28;20476;-65
2021/01/03 02:36:42;;;;;;;26.50;15.07;;;1.40;99.90;;;;;;5033717;28;20490;-65
2021/01/03 02:39:33;;;;;;;25.80;15.20;;;1.40;99.90;;;;;;5033607;28;20030;-65
2021/01/03 02:42:10;;;;;;;22.27;15.27;;;1.40;99.90;;;;;;5041867;28;20156;-65
2021/01/03 02:44:35;;;;;;;27.60;15.00;;;1.30;99.90;;;;;;5032969;28;20097;-64
2021/01/03 02:47:01;;;;;;;26.25;16.27;;;1.30;99.90;;;;;;5033357;28;20101;-64
2021/01/03 02:49:27;;;;;;;25.13;15.73;;;1.40;99.90;;;;;;5033211;28;20029;-64
2021/01/03 02:51:53;;;;;;;25.00;16.05;;;1.40;99.90;;;;;;5033353;28;20022;-64
2021/01/03 02:54:18;;;;;;;25.23;15.30;;;1.30;99.90;;;;;;5032528;28;20025;-64
2021/01/03 02:56:45;;;;;;;23.48;14.80;;;1.30;99.90;;;;;;5032909;28;20057;-64
2021/01/03 02:59:10;;;;;;;23.50;15.98;;;1.30;99.90;;;;;;5033078;28;20025;-65
2021/01/03 03:01:36;;;;;;;23.73;14.30;;;1.20;99.90;;;;;;5033037;28;20022;-65
2021/01/03 03:04:02;;;;;;;22.63;14.80;;;1.20;99.90;;;;;;5032509;28;20159;-65
2021/01/03 03:06:28;;;;;;;23.75;15.48;;;1.20;99.90;;;;;;5033091;28;20365;-65
2021/01/03 03:08:53;;;;;;;24.65;15.40;;;1.30;99.90;;;;;;5032887;28;20072;-65
2021/01/03 03:11:19;;;;;;;24.42;15.10;;;1.20;99.90;;;;;;5032677;28;20029;-65
2021/01/03 03:13:45;;;;;;;22.90;14.55;;;1.30;99.90;;;;;;5032251;28;20036;-65
2021/01/03 03:16:10;;;;;;;22.02;14.70;;;1.20;99.90;;;;;;5032507;28;20487;-65
2021/01/03 03:18:36;;;;;;;21.23;14.68;;;1.20;99.90;;;;;;5033032;28;20025;-65
2021/01/03 03:21:01;;;;;;;24.98;15.25;;;1.30;99.90;;;;;;5032664;28;20033;-65
2021/01/03 03:23:27;;;;;;;22.52;14.02;;;1.20;99.90;;;;;;5031966;28;20025;-65
2021/01/03 03:25:53;;;;;;;22.45;14.20;;;1.30;99.90;;;;;;5032508;28;20088;-65
2021/01/03 03:28:18;;;;;;;22.55;14.45;;;1.20;99.90;;;;;;5032411;28;20091;-65
2021/01/03 03:30:46;;;;;;;19.50;13.65;;;1.20;99.90;;;;;;5032507;28;20057;-65
2021/01/03 03:33:11;;;;;;;22.42;14.30;;;1.20;99.90;;;;;;5031425;28;20029;-65
2021/01/03 03:35:37;;;;;;;24.92;15.05;;;1.20;99.90;;;;;;5032222;28;20021;-65
2021/01/03 03:38:05;;;;;;;21.67;14.15;;;1.30;99.90;;;;;;5032205;28;20021;-65
2021/01/03 03:40:32;;;;;;;21.50;14.77;;;1.30;99.90;;;;;;5033063;28;20064;-65
2021/01/03 03:42:58;;;;;;;20.92;14.13;;;1.10;99.90;;;;;;5032600;28;20105;-65
2021/01/03 03:45:24;;;;;;;22.58;14.95;;;1.30;99.90;;;;;;5031917;28;20594;-65
2021/01/03 03:47:49;;;;;;;23.45;14.88;;;1.20;99.90;;;;;;5032250;28;20022;-65
2021/01/03 03:50:22;;;;;;;24.58;16.23;;;1.30;99.90;;;;;;5032070;28;20072;-65
2021/01/03 03:52:48;;;;;;;24.85;15.70;;;1.30;99.90;;;;;;5031376;28;20028;-65
2021/01/03 03:55:14;;;;;;;25.85;16.13;;;1.30;99.90;;;;;;5031797;28;20025;-65
2021/01/03 03:57:40;;;;;;;25.98;15.32;;;1.10;99.90;;;;;;5031888;28;20460;-65
2021/01/03 04:00:12;;;;;;;25.80;16.35;;;1.10;99.90;;;;;;5031844;28;20057;-65
2021/01/03 04:02:40;;;;;;;;;;;1.10;99.90;;;;;;5031933;28;20057;-65
2021/01/03 04:05:06;;;;;;;27.58;16.20;;;1.10;99.90;;;;;;5031825;28;19905;-65
2021/01/03 04:07:31;;;;;;;25.35;15.90;;;1.10;99.90;;;;;;5031923;28;20112;-65
2021/01/03 04:09:57;;;;;;;28.27;17.25;;;1.00;99.90;;;;;;5031709;28;20108;-65
2021/01/03 04:12:23;;;;;;;27.70;17.38;;;1.20;99.90;;;;;;5031560;28;20483;-65
2021/01/03 04:14:48;;;;;;;29.80;17.08;;;1.10;99.90;;;;;;5031034;28;20033;-65
2021/01/03 04:17:14;;;;;;;27.20;15.90;;;1.10;99.90;;;;;;5031870;28;20147;-65
2021/01/03 04:19:39;;;;;;;26.83;17.25;;;1.10;99.90;;;;;;5031582;28;20033;-65
2021/01/03 04:22:06;;;;;;;27.17;16.52;;;1.20;99.90;;;;;;5031629;28;20104;-65
2021/01/03 04:24:33;;;;;;;25.45;16.27;;;1.10;99.90;;;;;;5030807;28;20046;-65
2021/01/03 04:27:02;;;;;;;25.23;15.57;;;1.10;99.90;;;;;;5031370;28;20036;-64
2021/01/03 04:29:27;;;;;;;26.23;17.17;;;1.20;99.90;;;;;;5031405;28;20061;-65
2021/01/03 04:31:58;;;;;;;25.38;16.20;;;1.10;99.90;;;;;;5031505;28;20057;-65
2021/01/03 04:34:25;;;;;;;26.35;16.65;;;1.10;99.90;;;;;;5030812;28;20539;-64
2021/01/03 04:36:52;;;;;;;25.55;16.90;;;1.00;99.90;;;;;;5031568;28;20056;-64
2021/01/03 04:39:19;;;;;;;25.00;16.60;;;1.10;99.90;;;;;;5031414;28;20026;-65
2021/01/03 04:41:47;;;;;;;27.33;16.60;;;1.10;99.90;;;;;;5031470;28;20030;-65
2021/01/03 04:44:47;;;;;;;29.42;18.02;;;0.90;99.90;;;;;;5030562;28;20032;-65
2021/01/03 04:47:24;;;;;;;34.60;18.33;;;1.00;99.90;;;;;;5019216;28;20045;-65
2021/01/03 04:50:00;;;;;;;29.73;18.50;;;0.90;99.90;;;;;;5030080;28;20026;-65
2021/01/03 04:53:04;;;;;;;25.73;16.13;;;0.80;99.90;;;;;;5031211;28;20017;-65
2021/01/03 04:55:33;;;;;;;30.30;18.67;;;0.80;99.90;;;;;;5030681;28;20515;-65
2021/01/03 04:58:14;;;;;;;32.92;19.95;;;0.90;99.90;;;;;;5031925;28;20041;-65
2021/01/03 05:00:43;;;;;;;33.38;18.48;;;1.00;99.90;;;;;;5035257;28;20034;-65
2021/01/03 05:03:32;;;;;;;30.15;17.05;;;0.80;99.90;;;;;;5034642;28;20025;-65
2021/01/03 05:06:08;;;;;;;30.75;18.10;;;0.80;99.90;;;;;;5035225;28;20048;-65
2021/01/03 05:08:41;;;;;;;30.10;18.42;;;0.80;99.90;;;;;;5035061;28;20056;-65
2021/01/03 05:11:12;;;;;;;29.92;19.42;;;0.70;99.90;;;;;;5035163;28;20152;-65
2021/01/03 05:13:48;;;;;;;26.92;18.23;;;0.60;99.90;;;;;;5034309;28;20121;-65
2021/01/03 05:16:17;;;;;;;32.60;19.55;;;0.80;99.90;;;;;;5034228;28;20021;-65
2021/01/03 05:18:43;;;;;;;29.48;17.77;;;0.70;99.90;;;;;;5035089;28;20032;-65
2021/01/03 05:21:08;;;;;;;31.33;18.77;;;0.60;99.90;;;;;;5034925;28;20033;-65
2021/01/03 05:23:36;;;;;;;33.70;20.48;;;0.70;99.90;;;;;;5034260;28;20060;-65
2021/01/03 05:26:07;;;;;;;33.00;20.58;;;0.70;99.90;;;;;;5033560;28;20041;-65
2021/01/03 05:28:36;;;;;;;30.88;19.90;;;0.80;99.90;;;;;;5034433;28;20056;-65
2021/01/03 05:31:13;;;;;;;31.85;19.02;;;0.80;99.90;;;;;;5034443;28;20029;-65
2021/01/03 05:33:59;;;;;;;32.72;19.25;;;0.80;99.90;;;;;;5034082;28;20376;-65
2021/01/03 05:36:42;;;;;;;29.52;18.67;;;0.80;99.90;;;;;;5034715;28;20022;-65
2021/01/03 05:39:21;;;;;;;33.92;19.88;;;0.90;99.90;;;;;;5034629;28;20396;-65
2021/01/03 05:41:47;;;;;;;30.10;18.95;;;0.90;99.90;;;;;;5034602;28;20380;-65
2021/01/03 05:44:20;;;;;;;34.83;18.77;;;0.80;99.90;;;;;;5031985;28;20032;-65
2021/01/03 05:46:48;;;;;;;29.73;18.15;;;0.80;99.90;;;;;;5034587;28;20017;-65
2021/01/03 05:49:34;;;;;;;32.25;19.25;;;0.80;99.90;;;;;;5033044;28;20026;-65
2021/01/03 05:52:26;;;;;;;31.52;19.40;;;0.90;99.90;;;;;;5034291;28;20053;-65
2021/01/03 05:54:53;;;;;;;34.90;18.67;;;0.80;99.90;;;;;;5033557;28;20024;-65
2021/01/03 05:57:27;;;;;;;31.20;18.65;;;0.90;99.90;;;;;;5032722;28;20052;-65
2021/01/03 05:59:53;;;;;;;30.55;19.08;;;0.80;99.90;;;;;;5033884;28;20476;-65
2021/01/03 06:02:28;;;;;;;32.45;19.50;;;0.70;99.90;;;;;;5034141;28;20040;-65
2021/01/03 06:05:07;;;;;;;33.47;19.58;;;0.70;99.90;;;;;;5033424;28;20026;-65
2021/01/03 06:07:35;;;;;;;31.60;19.58;;;0.70;99.90;;;;;;5033905;28;20025;-65
2021/01/03 06:10:01;;;;;;;32.00;18.83;;;0.80;99.90;;;;;;5033823;28;20052;-65
2021/01/03 06:12:29;;;;;;;34.58;19.67;;;0.80;99.90;;;;;;5033741;28;20021;-65
2021/01/03 06:14:59;;;;;;;33.78;20.85;;;0.70;99.90;;;;;;5033224;28;20030;-65
2021/01/03 06:17:57;;;;;;;34.28;21.08;;;0.80;99.90;;;;;;5033616;28;20036;-65
2021/01/03 06:20:27;;;;;;;35.47;19.88;;;0.80;99.90;;;;;;5021399;28;20499;-65
2021/01/03 06:23:09;;;;;;;32.17;19.95;;;0.70;99.90;;;;;;5031923;28;20025;-65
2021/01/03 06:25:41;;;;;;;;;;;0.60;99.90;;;;;;5033199;28;20083;-65
2021/01/03 06:28:11;;;;;;;;;;;0.60;99.90;;;;;;5031646;28;19909;-65
2021/01/03 06:30:38;;;;;;;33.90;19.50;;;0.70;99.90;;;;;;5032961;28;19945;-64
2021/01/03 06:33:16;;;;;;;36.85;21.85;;;0.60;99.90;;;;;;5032762;28;20052;-64
2021/01/03 06:35:48;;;;;;;40.00;21.90;;;0.70;99.90;;;;;;5033605;28;20017;-65
2021/01/03 06:38:37;;;;;;;;;;;0.70;99.90;;;;;;5034178;28;20056;-65
2021/01/03 06:41:14;;;;;;;31.25;19.13;;;0.60;99.90;;;;;;5013665;28;19951;-65
2021/01/03 06:43:52;;;;;;;35.42;21.67;;;0.60;99.90;;;;;;5032750;28;20460;-65
2021/01/03 06:46:39;;;;;;;35.28;21.45;;;0.60;99.90;;;;;;5022650;28;20037;-65
2021/01/03 06:49:35;;;;;;;36.17;21.35;;;0.70;99.90;;;;;;5023156;28;20096;-65
2021/01/03 06:52:25;;;;;;;36.13;23.17;;;0.70;99.90;;;;;;5023085;28;20029;-65
2021/01/03 06:55:09;;;;;;;38.15;22.45;;;0.70;99.90;;;;;;5023100;28;20029;-64
2021/01/03 06:57:47;;;;;;;38.75;23.20;;;0.80;99.90;;;;;;5020146;28;20083;-64
2021/01/03 07:00:14;;;;;;;40.17;23.88;;;0.80;99.90;;;;;;5021781;28;20026;-64
2021/01/03 07:02:47;;;;;;;41.30;23.67;;;0.80;99.90;;;;;;5023759;28;20480;-63
2021/01/03 07:05:13;;;;;;;36.83;23.05;;;0.80;99.90;;;;;;5021858;28;20029;-64
2021/01/03 07:07:44;;;;;;;38.35;22.70;;;0.70;99.90;;;;;;5021656;28;20383;-64
2021/01/03 07:10:40;;;;;;;38.50;23.55;;;0.80;99.90;;;;;;5023339;28;20025;-64
2021/01/03 07:13:29;;;;;;;36.42;22.83;;;0.70;99.90;;;;;;5015753;28;20048;-65
2021/01/03 07:15:59;;;;;;;41.88;23.85;;;0.70;99.90;;;;;;5021699;28;20034;-64
2021/01/03 07:18:37;;;;;;;62.35;31.00;;;0.80;99.90;;;;;;5032273;28;20018;-71
2021/01/03 07:21:06;;;;;;;48.58;26.13;;;1.30;99.90;;;;;;5031282;28;20033;-65
2021/01/03 07:23:37;;;;;;;47.78;28.17;;;1.60;99.90;;;;;;5031755;28;20030;-64
2021/01/03 07:26:32;;;;;;;46.03;26.60;;;1.30;99.90;;;;;;5033245;28;20487;-64
2021/01/03 07:29:06;;;;;;;58.63;29.83;;;1.20;99.90;;;;;;5033234;28;20104;-65
2021/01/03 07:31:53;;;;;;;50.47;28.48;;;1.90;99.90;;;;;;5032113;28;20033;-67
2021/01/03 07:34:26;;;;;;;57.33;28.05;;;1.60;99.90;;;;;;5031788;28;20400;-72
2021/01/03 07:36:58;;;;;;;51.60;29.00;;;1.90;99.90;;;;;;5031999;28;20025;-65
2021/01/03 07:39:29;;;;;;;41.65;24.42;;;1.60;99.90;;;;;;5034714;28;20083;-69
2021/01/03 07:42:21;;;;;;;36.63;22.77;;;2.00;99.90;;;;;;5011810;28;20045;-65
2021/01/03 07:44:49;;;;;;;32.90;20.63;;;1.80;99.90;;;;;;5016813;28;20105;-65
2021/01/03 07:47:36;;;;;;;31.58;20.67;;;1.70;99.90;;;;;;5030796;28;20022;-65
2021/01/03 07:50:17;;;;;;;35.00;21.52;;;1.50;99.90;;;;;;5030828;28;20598;-65
2021/01/03 07:52:57;;;;;;;31.05;20.85;;;1.40;99.90;;;;;;5030337;28;20026;-65
2021/01/03 07:55:23;;;;;;;32.13;19.88;;;1.40;99.90;;;;;;5030961;28;20022;-65
2021/01/03 07:58:11;;;;;;;34.45;21.52;;;1.30;99.90;;;;;;5030191;28;20112;-65
2021/01/03 08:00:39;;;;;;;33.30;21.25;;;1.30;99.90;;;;;;5030448;28;20558;-65
2021/01/03 08:03:10;;;;;;;35.80;21.95;;;1.20;99.90;;;;;;5030442;28;20025;-65
2021/01/03 08:05:39;;;;;;;38.95;23.75;;;1.30;99.90;;;;;;5030543;28;20040;-65
2021/01/03 08:08:36;;;;;;;41.67;24.95;;;1.30;99.90;;;;;;5031271;28;20029;-65
2021/01/03 08:11:22;;;;;;;39.08;22.92;;;1.10;99.90;;;;;;5010918;28;20137;-65
2021/01/03 08:13:52;;;;;;;40.88;24.45;;;1.10;99.90;;;;;;5016473;28;20080;-70
2021/01/03 08:16:23;;;;;;;37.20;22.50;;;1.10;99.90;;;;;;5018122;28;20022;-70
2021/01/03 08:19:20;;;;;;;38.70;24.23;;;1.20;99.90;;;;;;5019579;28;20028;-71
2021/01/03 08:21:56;;;;;;;38.15;23.20;;;1.30;99.90;;;;;;5019443;28;20050;-70
2021/01/03 08:24:23;;;;;;;37.17;23.15;;;1.10;99.90;;;;;;5018700;28;20030;-70
2021/01/03 08:26:55;;;;;;;36.63;23.33;;;1.30;99.90;;;;;;5022527;28;20033;-75
2021/01/03 08:29:23;;;;;;;36.33;23.27;;;1.30;99.90;;;;;;5021504;28;20026;-74
2021/01/03 08:31:52;;;;;;;39.00;22.80;;;1.30;99.90;;;;;;5020801;28;20536;-75
2021/01/03 08:34:26;;;;;;;34.78;21.00;;;1.30;99.90;;;;;;5016004;28;20162;-74
2021/01/03 08:36:52;;;;;;;32.60;21.38;;;1.40;99.90;;;;;;5019239;28;20021;-76
2021/01/03 08:39:17;;;;;;;35.83;22.92;;;1.50;99.90;;;;;;5021196;28;20018;-75
2021/01/03 08:41:52;;;;;;;29.50;20.05;;;1.50;99.90;;;;;;5018701;28;20459;-75
2021/01/03 08:44:26;;;;;;;30.58;20.02;;;1.60;99.90;;;;;;5025755;28;20018;-65
2021/01/03 08:47:17;;;;;;;39.15;23.20;;;1.50;99.90;;;;;;5031128;28;20524;-73
2021/01/03 08:49:43;;;;;;;51.38;28.08;;;1.90;99.90;;;;;;5031215;28;20065;-75
2021/01/03 08:52:16;;;;;;;26.48;18.13;;;2.80;99.90;;;;;;5031894;28;20048;-67
2021/01/03 08:54:47;;;;;;;24.58;16.85;;;3.40;99.90;;;;;;5030529;28;20033;-73
2021/01/03 08:57:13;;;;;;;23.75;16.52;;;3.80;99.90;;;;;;5029591;28;20029;-72
2021/01/03 08:59:40;;;;;;;24.05;16.52;;;5.00;99.90;;;;;;5031012;28;20025;-64
2021/01/03 09:02:20;;;;;;;23.67;15.38;;;4.50;99.90;;;;;;5030938;28;20152;-65
2021/01/03 09:04:47;;;;;;;24.85;17.50;;;3.90;99.90;;;;;;5022716;28;20022;-65
2021/01/03 09:07:14;;;;;;;27.58;17.90;;;3.50;99.90;;;;;;5011172;28;20030;-64
2021/01/03 09:09:46;;;;;;;24.75;17.60;;;3.30;99.90;;;;;;5011599;28;20033;-68
2021/01/03 09:12:13;;;;;;;;;;;3.00;99.90;;;;;;5013393;28;20435;-66
2021/01/03 09:14:44;;;;;;;23.42;16.45;;;2.80;99.90;;;;;;5016320;28;19952;-67
2021/01/03 09:17:16;;;;;;;22.20;15.73;;;2.50;99.90;;;;;;5032579;28;20076;-65
2021/01/03 09:20:02;;;;;;;24.10;16.17;;;2.30;99.90;;;;;;5031286;28;20045;-68
2021/01/03 09:22:38;;;;;;;22.92;16.25;;;2.00;99.90;;;;;;5032606;28;20517;-68
2021/01/03 09:25:32;;;;;;;23.95;17.45;;;2.00;99.90;;;;;;5033605;28;20034;-67
2021/01/03 09:28:12;;;;;;;24.63;17.90;;;2.00;99.90;;;;;;5026803;28;20526;-67
2021/01/03 09:30:43;;;;;;;25.02;18.08;;;2.10;99.90;;;;;;5032902;28;20025;-67
2021/01/03 09:33:09;;;;;;;24.30;18.02;;;2.00;99.90;;;;;;5018444;28;20026;-68
2021/01/03 09:35:53;;;;;;;26.33;17.63;;;1.80;99.90;;;;;;5022497;28;20057;-68
2021/01/03 09:38:31;;;;;;;26.52;18.40;;;2.00;99.90;;;;;;5023913;28;20037;-67
2021/01/03 09:41:23;;;;;;;28.63;18.35;;;1.90;99.90;;;;;;5042040;28;20032;-67
2021/01/03 09:44:08;;;;;;;30.17;18.30;;;2.00;99.90;;;;;;5042430;28;20056;-66
2021/01/03 09:46:44;;;;;;;28.92;19.38;;;1.80;99.90;;;;;;5026222;28;20040;-69
2021/01/03 09:49:20;;;;;;;26.45;19.05;;;1.90;99.90;;;;;;5026499;28;20744;-68
2021/01/03 09:52:07;;;;;;;28.65;18.77;;;2.00;99.90;;;;;;5025905;28;20094;-68
2021/01/03 09:55:03;;;;;;;27.67;18.48;;;2.00;99.90;;;;;;5024174;28;20021;-69
2021/01/03 09:57:44;;;;;;;25.98;17.95;;;2.00;99.90;;;;;;5028437;28;20143;-76
2021/01/03 10:00:13;;;;;;;26.55;17.33;;;2.00;99.90;;;;;;5025456;28;20104;-74
2021/01/03 10:02:39;;;;;;;28.73;17.42;;;1.80;99.90;;;;;;5025272;28;20026;-77
2021/01/03 10:05:19;;;;;;;27.35;17.52;;;1.80;99.90;;;;;;5032338;28;20016;-78
2021/01/03 10:07:54;;;;;;;23.83;16.45;;;1.90;99.90;;;;;;5039102;28;20022;-77
2021/01/03 10:10:21;;;;;;;24.92;17.60;;;1.90;99.90;;;;;;5028023;28;20049;-72
2021/01/03 10:12:47;;;;;;;23.67;17.13;;;2.00;99.90;;;;;;5025726;28;20010;-73
2021/01/03 10:15:15;;;;;;;25.50;17.40;;;2.00;99.90;;;;;;5025386;28;20086;-73
2021/01/03 10:17:54;;;;;;;25.38;17.38;;;2.20;99.90;;;;;;5026100;28;20037;-74
2021/01/03 10:20:33;;;;;;;26.92;17.73;;;2.10;99.90;;;;;;5029745;28;20041;-73
2021/01/03 10:22:59;;;;;;;26.08;17.85;;;2.10;99.90;;;;;;5023668;28;20029;-72
2021/01/03 10:25:25;;;;;;;25.05;18.10;;;1.80;99.90;;;;;;5026554;28;20031;-80
2021/01/03 10:28:06;;;;;;;25.65;17.33;;;1.90;99.90;;;;;;5027539;28;20025;-70
2021/01/03 10:30:33;;;;;;;25.20;17.25;;;2.10;99.90;;;;;;5024432;28;20052;-69
2021/01/03 10:32:59;;;;;;;24.80;16.45;;;2.20;99.90;;;;;;5033558;28;20030;-69
2021/01/03 10:35:25;;;;;;;27.55;18.35;;;2.30;99.90;;;;;;5037160;28;20581;-70
2021/01/03 10:37:51;;;;;;;26.98;17.75;;;2.40;99.90;;;;;;5036454;28;20022;-68
2021/01/03 10:40:17;;;;;;;24.67;17.42;;;2.50;99.90;;;;;;5018248;28;20122;-67
2021/01/03 10:42:43;;;;;;;27.90;18.02;;;2.50;99.90;;;;;;5016159;28;20037;-67
2021/01/03 10:45:09;;;;;;;26.00;16.52;;;2.80;99.90;;;;;;5024751;28;20029;-67
2021/01/03 10:47:35;;;;;;;22.77;16.92;;;2.70;99.90;;;;;;5037897;28;20033;-68
2021/01/03 10:50:01;;;;;;;20.77;14.95;;;2.80;99.90;;;;;;5037080;28;20040;-68
2021/01/03 10:52:26;;;;;;;21.60;15.43;;;2.70;99.90;;;;;;5037805;28;20487;-68
2021/01/03 10:54:52;;;;;;;24.98;16.10;;;2.90;99.90;;;;;;5033595;28;20022;-68
2021/01/03 10:57:17;;;;;;;22.27;15.90;;;3.10;99.90;;;;;;5033486;28;20027;-66
2021/01/03 10:59:43;;;;;;;19.98;14.90;;;3.10;99.90;;;;;;5034089;28;20029;-69
2021/01/03 11:02:09;;;;;;;20.80;14.38;;;3.20;99.90;;;;;;5034072;28;20109;-67
2021/01/03 11:04:34;;;;;;;21.15;15.25;;;3.20;99.90;;;;;;5033172;28;20104;-67
2021/01/03 11:07:01;;;;;;;16.85;13.02;;;3.20;99.90;;;;;;5033669;28;20159;-66
2021/01/03 11:09:29;;;;;;;19.88;14.15;;;3.30;99.90;;;;;;5033618;28;20104;-67
2021/01/03 11:12:11;;;;;;;18.88;14.40;;;3.70;99.90;;;;;;5034229;28;20032;-67
2021/01/03 11:14:37;;;;;;;19.17;13.98;;;3.90;99.90;;;;;;5033249;28;20017;-67
2021/01/03 11:17:07;;;;;;;17.08;13.85;;;4.10;99.90;;;;;;5034131;28;20040;-67
2021/01/03 11:19:34;;;;;;;18.65;13.88;;;3.70;99.90;;;;;;5033759;28;20136;-68
2021/01/03 11:22:02;;;;;;;18.48;12.88;;;3.80;99.90;;;;;;5034966;28;20036;-68
2021/01/03 11:24:28;;;;;;;18.92;13.38;;;3.80;99.90;;;;;;5035934;28;20025;-67
2021/01/03 11:26:54;;;;;;;17.15;13.02;;;4.10;99.90;;;;;;5035759;28;20036;-67
2021/01/03 11:29:25;;;;;;;19.20;14.32;;;4.40;99.90;;;;;;5035415;28;20037;-67
2021/01/03 11:31:54;;;;;;;18.55;13.02;;;4.20;99.90;;;;;;5034818;28;20116;-67
2021/01/03 11:34:23;;;;;;;19.48;15.13;;;4.10;99.90;;;;;;5033119;28;20071;-67
2021/01/03 11:36:51;;;;;;;19.17;14.48;;;4.00;99.90;;;;;;5033415;28;20112;-68
2021/01/03 11:39:18;;;;;;;17.80;12.65;;;4.30;99.90;;;;;;5032727;28;20045;-68
2021/01/03 11:41:49;;;;;;;16.80;12.85;;;4.10;99.90;;;;;;5032792;28;20072;-68
2021/01/03 11:44:14;;;;;;;15.85;12.00;;;3.90;99.90;;;;;;5029547;28;20454;-67
2021/01/03 11:46:41;;;;;;;18.23;13.05;;;3.70;99.90;;;;;;5012894;28;20030;-67
2021/01/03 11:49:06;;;;;;;17.23;13.02;;;4.00;99.90;;;;;;5012464;28;20368;-69
2021/01/03 11:51:32;;;;;;;16.65;12.82;;;4.10;99.90;;;;;;5012689;28;20108;-67
2021/01/03 11:53:58;;;;;;;17.80;13.60;;;4.00;99.90;;;;;;5011783;28;20045;-67
2021/01/03 11:56:24;;;;;;;15.90;12.15;;;4.20;99.90;;;;;;5013260;28;20346;-69
2021/01/03 11:58:51;;;;;;;14.65;11.38;;;4.30;99.90;;;;;;5019044;28;20026;-70
2021/01/03 12:01:21;;;;;;;15.35;11.50;;;4.30;99.90;;;;;;5022295;28;20086;-78
2021/01/03 12:03:48;;;;;;;16.25;12.45;;;4.30;99.90;;;;;;5029347;28;20037;-79
2021/01/03 12:06:22;;;;;;;15.73;12.57;;;4.30;99.90;;;;;;5041347;28;20029;-79
2021/01/03 12:08:48;;;;;;;15.10;11.65;;;4.40;99.90;;;;;;5032425;28;20037;-79
2021/01/03 12:11:21;;;;;;;17.30;12.10;;;4.20;99.90;;;;;;5032573;28;20021;-78
2021/01/03 12:13:56;;;;;;;14.32;10.75;;;3.90;99.90;;;;;;5023097;28;20417;-79
2021/01/03 12:16:26;;;;;;;17.55;11.98;;;3.70;99.90;;;;;;5026901;28;20060;-79
2021/01/03 12:18:53;;;;;;;16.05;12.15;;;3.60;99.90;;;;;;5022240;28;20026;-77
2021/01/03 12:21:25;;;;;;;17.00;12.02;;;3.70;99.90;;;;;;5042311;28;20060;-78
2021/01/03 12:23:51;;;;;;;15.50;11.25;;;3.60;99.90;;;;;;5040856;28;20048;-69
2021/01/03 12:26:18;;;;;;;17.73;12.20;;;3.60;99.90;;;;;;5041355;28;20079;-68
2021/01/03 12:28:43;;;;;;;17.35;13.10;;;3.70;99.90;;;;;;5042712;28;20067;-69
2021/01/03 12:31:09;;;;;;;15.40;11.88;;;3.80;99.90;;;;;;5045336;28;20111;-69
2021/01/03 12:33:35;;;;;;;17.73;12.43;;;3.70;99.90;;;;;;5039745;28;20065;-69
2021/01/03 12:36:00;;;;;;;17.33;12.30;;;3.70;99.90;;;;;;5040894;28;20026;-68
2021/01/03 12:38:26;;;;;;;17.77;12.65;;;3.80;99.90;;;;;;5034885;28;20032;-68
2021/01/03 12:40:52;;;;;;;15.82;11.98;;;3.50;99.90;;;;;;5032249;28;20026;-69
2021/01/03 12:43:18;;;;;;;16.02;12.30;;;3.60;99.90;;;;;;5030840;28;20045;-68
2021/01/03 12:45:44;;;;;;;18.33;13.23;;;3.50;99.90;;;;;;5031665;28;20025;-68
2021/01/03 12:48:09;;;;;;;20.77;13.20;;;3.50;99.90;;;;;;5031396;28;20029;-69
2021/01/03 12:50:35;;;;;;;20.73;13.68;;;3.40;99.90;;;;;;5031383;28;20075;-68
2021/01/03 12:53:01;;;;;;;17.70;13.98;;;3.50;99.90;;;;;;5030676;28;20024;-68
2021/01/03 12:55:27;;;;;;;20.63;13.98;;;3.70;99.90;;;;;;5031212;28;20013;-68
2021/01/03 12:57:52;;;;;;;19.40;14.02;;;3.70;99.90;;;;;;5030893;28;20045;-68
2021/01/03 13:00:18;;;;;;;21.38;13.50;;;3.70;99.90;;;;;;5017666;28;20408;-77